Time;durP1;ratioP1;P1;durP2;ratioP2;P2;SDS_P1;SDS_P2;PMS_P1;PMS_P2;Temp;Humidity;BMP_temperature;BMP_pressure;BME280_temperature;BME280_humidity;BME280_pressure;Samples;Min_cycle;Max_cycle;Signal;HPM_P1;HPM_P2
2022/02/03 00:00:48;;;;;;;2.50;2.00;;;17.30;56.00;;;;;;5051971;28;20189;-60
2022/02/03 00:05:46;;;;;;;3.25;2.47;;;17.30;56.10;;;;;;5051206;28;20236;-60
2022/02/03 00:08:25;;;;;;;2.78;2.50;;;17.30;56.10;;;;;;5051711;28;20187;-61
2022/02/03 00:22:23;;;;;;;3.03;2.45;;;17.20;56.00;;;;;;5052959;28;20182;-62
2022/02/03 00:25:12;;;;;;;2.30;2.10;;;17.20;56.00;;;;;;5055310;28;20170;-62
2022/02/03 00:27:58;;;;;;;3.08;2.13;;;17.20;56.00;;;;;;5055766;28;20229;-61
2022/02/03 00:38:23;;;;;;;2.05;1.95;;;17.20;56.00;;;;;;5055401;28;20236;-60
2022/02/03 00:49:04;;;;;;;2.47;2.33;;;17.10;56.00;;;;;;5055108;28;20178;-60
2022/02/03 00:51:30;;;;;;;2.53;2.33;;;17.10;56.00;;;;;;5055665;28;20313;-60
2022/02/03 00:53:57;;;;;;;2.50;2.30;;;17.10;56.00;;;;;;5054185;28;20227;-62
2022/02/03 00:56:25;;;;;;;2.95;2.33;;;17.10;56.00;;;;;;5055381;28;20280;-61
2022/02/03 00:58:54;;;;;;;2.30;2.10;;;17.10;56.00;;;;;;5055283;28;20260;-60
2022/02/03 01:01:20;;;;;;;2.58;2.03;;;17.10;56.00;;;;;;5037020;28;20229;-60
2022/02/03 01:03:50;;;;;;;2.30;2.10;;;17.10;56.00;;;;;;5037210;28;20171;-60
2022/02/03 01:06:16;;;;;;;2.38;2.17;;;17.10;56.00;;;;;;5054934;28;20176;-60
2022/02/03 01:08:42;;;;;;;2.72;2.53;;;17.10;56.00;;;;;;5036599;28;20688;-60
2022/02/03 01:11:14;;;;;;;3.15;2.00;;;17.10;56.00;;;;;;5054737;28;20253;-62
2022/02/03 01:13:55;;;;;;;2.33;2.13;;;17.10;56.00;;;;;;5038225;28;20260;-63
2022/02/03 01:16:38;;;;;;;2.30;2.10;;;17.00;56.00;;;;;;5039277;28;20611;-61
2022/02/03 01:45:24;;;;;;;2.40;2.20;;;17.00;56.00;;;;;;5054417;28;20225;-60
2022/02/03 01:48:06;;;;;;;3.67;2.63;;;17.00;56.00;;;;;;5054555;28;20190;-61
2022/02/03 01:53:18;;;;;;;2.53;2.33;;;16.90;56.00;;;;;;5050160;28;20317;-61
2022/02/03 01:55:44;;;;;;;3.15;2.63;;;16.90;56.00;;;;;;5039842;28;20592;-61
2022/02/03 01:58:17;;;;;;;2.60;2.40;;;16.90;55.90;;;;;;5055467;28;20181;-60
2022/02/03 02:00:54;;;;;;;3.83;3.03;;;16.90;56.00;;;;;;5056445;28;20197;-60
2022/02/03 02:03:21;;;;;;;2.90;2.45;;;16.90;56.00;;;;;;5039072;28;20177;-60
2022/02/03 02:05:53;;;;;;;3.00;2.80;;;16.90;56.00;;;;;;5056338;28;20190;-60
2022/02/03 02:08:43;;;;;;;3.30;3.00;;;16.90;56.00;;;;;;5056026;28;20177;-60
2022/02/03 02:11:33;;;;;;;2.70;2.50;;;16.90;56.00;;;;;;5073036;28;20183;-62
2022/02/03 02:19:22;;;;;;;2.60;2.40;;;16.90;56.00;;;;;;5072813;28;20185;-61
2022/02/03 02:43:45;;;;;;;2.90;2.70;;;16.80;56.00;;;;;;5056688;28;20178;-61
2022/02/03 02:46:46;;;;;;;3.88;3.10;;;16.80;55.90;;;;;;5072138;28;20178;-60
2022/02/03 02:49:46;;;;;;;3.05;2.83;;;16.80;56.00;;;;;;5057631;28;20174;-60
2022/02/03 02:52:16;;;;;;;3.30;3.00;;;16.80;56.00;;;;;;5070119;28;20645;-61
2022/02/03 02:55:01;;;;;;;3.38;3.08;;;16.80;55.90;;;;;;5052569;28;20250;-61
2022/02/03 03:01:17;;;;;;;3.47;3.17;;;16.80;56.00;;;;;;5052271;28;20233;-60
2022/02/03 03:32:10;;;;;;;3.85;3.50;;;16.70;55.90;;;;;;4972451;28;20178;-60
2022/02/03 03:37:08;;;;;;;3.22;3.00;;;16.70;56.00;;;;;;5053064;28;20262;-60
2022/02/03 03:39:40;;;;;;;3.88;3.58;;;16.70;56.00;;;;;;5053269;28;20194;-61
2022/02/03 03:42:06;;;;;;;4.05;3.72;;;16.70;55.90;;;;;;5035369;28;20199;-61
2022/02/03 03:44:31;;;;;;;3.88;3.58;;;16.70;55.90;;;;;;5053307;28;20213;-61
2022/02/03 03:47:01;;;;;;;4.10;3.70;;;16.70;55.90;;;;;;5035227;28;20167;-61
2022/02/03 03:49:43;;;;;;;4.70;4.30;;;16.70;55.90;;;;;;5052633;28;20183;-61
2022/02/03 03:52:14;;;;;;;4.22;3.60;;;16.60;55.90;;;;;;5052627;28;20183;-60
2022/02/03 03:54:51;;;;;;;4.32;3.80;;;16.60;55.90;;;;;;5052949;28;20214;-62
2022/02/03 04:00:54;;;;;;;3.90;3.60;;;16.60;55.90;;;;;;4972156;28;20185;-60
2022/02/03 04:30:14;;;;;;;4.25;3.75;;;16.60;55.90;;;;;;5052200;28;20209;-60
2022/02/03 04:32:29;;;;;;;3.88;3.58;;;16.50;55.80;;;;;;5051032;28;20270;-60
2022/02/03 04:40:42;;;;;;;3.40;3.10;;;16.60;55.90;;;;;;5051513;28;20229;-61
2022/02/03 04:53:29;;;;;;;4.35;3.95;;;16.50;55.80;;;;;;5036695;28;20225;-61
2022/02/03 04:56:19;;;;;;;4.65;3.70;;;16.50;55.80;;;;;;5052255;28;20210;-62
2022/02/03 04:59:26;;;;;;;3.90;3.60;;;16.50;55.80;;;;;;5051739;28;20237;-61
2022/02/03 05:05:35;;;;;;;4.80;3.95;;;16.50;55.80;;;;;;5052652;28;20229;-60
2022/02/03 05:11:27;;;;;;;3.80;3.50;;;16.50;55.80;;;;;;5013632;28;20715;-62
2022/02/03 05:20:13;;;;;;;3.88;3.58;;;16.50;55.80;;;;;;5038424;28;20185;-62
2022/02/03 05:32:16;;;;;;;3.90;3.60;;;16.40;55.80;;;;;;5055738;28;20225;-60
2022/02/03 05:42:05;;;;;;;3.97;3.58;;;16.40;55.70;;;;;;5026603;28;20590;-61
2022/02/03 06:15:19;;;;;;;4.03;3.63;;;16.30;55.60;;;;;;4973502;28;20217;-62
2022/02/03 06:20:55;;;;;;;3.70;3.50;;;16.30;55.60;;;;;;5074325;28;20534;-61
2022/02/03 06:23:26;;;;;;;4.60;3.47;;;16.30;55.60;;;;;;5074334;28;20171;-60
2022/02/03 06:28:47;;;;;;;3.95;3.15;;;16.30;55.60;;;;;;5045839;28;20649;-60
2022/02/03 06:31:12;;;;;;;4.03;3.55;;;16.30;55.60;;;;;;5073821;28;20630;-60
2022/02/03 06:33:38;;;;;;;3.75;3.53;;;16.30;55.60;;;;;;5074421;28;20175;-60
2022/02/03 06:36:03;;;;;;;3.35;3.05;;;16.30;55.60;;;;;;5074206;28;20186;-60
2022/02/03 06:38:31;;;;;;;3.22;3.03;;;16.30;55.60;;;;;;5073471;28;20178;-59
2022/02/03 06:40:56;;;;;;;3.05;2.85;;;16.30;55.60;;;;;;5073927;28;20181;-60
2022/02/03 06:43:22;;;;;;;3.20;3.00;;;16.30;55.50;;;;;;5074260;28;20167;-60
2022/02/03 06:45:57;;;;;;;3.25;3.05;;;16.30;55.60;;;;;;5073721;28;20167;-60
2022/02/03 06:48:24;;;;;;;3.45;3.15;;;16.30;55.50;;;;;;5074254;28;20178;-60
2022/02/03 06:50:57;;;;;;;3.45;3.20;;;16.30;55.60;;;;;;5074120;28;20202;-60
2022/02/03 06:53:26;;;;;;;2.72;2.58;;;16.20;55.50;;;;;;5061037;28;20313;-60
2022/02/03 06:56:07;;;;;;;3.47;3.17;;;16.20;55.60;;;;;;5053632;28;20215;-61
2022/02/03 07:01:10;;;;;;;3.35;3.13;;;16.30;55.60;;;;;;5053743;28;20201;-59
2022/02/03 07:03:40;;;;;;;3.17;2.97;;;16.20;55.60;;;;;;5054056;28;20195;-60
2022/02/03 07:06:06;;;;;;;3.42;3.13;;;16.30;55.60;;;;;;5053009;28;20182;-60
2022/02/03 07:08:33;;;;;;;2.80;2.60;;;16.30;55.50;;;;;;5053971;28;20172;-59
2022/02/03 07:11:00;;;;;;;2.78;2.58;;;16.30;55.60;;;;;;5053776;28;20267;-62
2022/02/03 07:13:26;;;;;;;2.63;2.42;;;16.30;55.50;;;;;;5053055;28;20195;-61
2022/02/03 07:15:51;;;;;;;2.53;2.33;;;16.40;55.40;;;;;;5053659;28;20257;-62
2022/02/03 07:18:17;;;;;;;2.90;2.70;;;16.40;55.40;;;;;;5053411;28;20221;-60
2022/02/03 07:20:43;;;;;;;3.22;2.60;;;16.40;55.40;;;;;;5052645;28;20637;-61
2022/02/03 07:23:09;;;;;;;2.95;2.70;;;16.40;55.40;;;;;;5053379;28;20286;-60
2022/02/03 07:25:38;;;;;;;2.80;2.60;;;16.40;55.40;;;;;;5053358;28;20587;-60
2022/02/03 07:28:04;;;;;;;3.05;2.42;;;16.40;55.30;;;;;;5052604;28;20265;-60
2022/02/03 07:30:29;;;;;;;2.97;2.78;;;16.40;55.40;;;;;;5053215;28;20198;-60
2022/02/03 07:32:59;;;;;;;3.00;2.70;;;16.30;55.30;;;;;;5052577;28;20167;-60
2022/02/03 07:35:24;;;;;;;2.70;2.47;;;16.40;55.40;;;;;;5052391;28;20634;-60
2022/02/03 07:37:51;;;;;;;2.85;2.65;;;16.40;55.40;;;;;;5053138;28;20183;-60
2022/02/03 07:40:17;;;;;;;2.92;2.60;;;16.50;55.50;;;;;;5053130;28;20228;-60
2022/02/03 07:42:46;;;;;;;2.30;2.10;;;16.60;55.40;;;;;;5052553;28;20167;-59
2022/02/03 07:45:11;;;;;;;2.55;2.10;;;16.70;55.30;;;;;;5052673;28;20642;-60
2022/02/03 07:47:51;;;;;;;2.08;1.98;;;16.80;55.00;;;;;;5053020;28;20171;-60
2022/02/03 07:50:16;;;;;;;2.90;2.42;;;17.00;54.80;;;;;;5052997;28;20170;-60
2022/02/03 07:52:43;;;;;;;2.30;2.10;;;17.20;54.60;;;;;;5052819;28;20225;-61
2022/02/03 07:55:08;;;;;;;2.70;1.80;;;17.40;54.40;;;;;;5051949;28;20227;-66
2022/02/03 07:57:34;;;;;;;2.88;1.80;;;17.60;54.20;;;;;;5052676;28;20231;-65
2022/02/03 08:00:00;;;;;;;1.80;1.70;;;17.70;53.90;;;;;;5052422;28;20642;-66
2022/02/03 08:02:25;;;;;;;3.15;2.00;;;17.90;53.70;;;;;;5051897;28;20587;-69
2022/02/03 08:04:52;;;;;;;2.88;1.58;;;18.10;53.30;;;;;;5052894;28;20171;-67
2022/02/03 08:07:20;;;;;;;2.42;1.80;;;18.20;53.50;;;;;;5052804;28;20172;-66
2022/02/03 08:10:02;;;;;;;3.72;1.83;;;18.20;53.30;;;;;;5051770;28;20772;-64
2022/02/03 08:12:32;;;;;;;2.08;1.75;;;18.30;53.20;;;;;;5051526;28;20186;-64
2022/02/03 08:14:58;;;;;;;4.30;2.00;;;18.30;53.20;;;;;;5052172;28;20217;-64
2022/02/03 08:17:34;;;;;;;1.58;1.48;;;18.30;53.30;;;;;;5051988;28;20526;-64
2022/02/03 08:20:05;;;;;;;1.83;1.70;;;18.30;53.40;;;;;;5052466;28;20189;-65
2022/02/03 08:22:37;;;;;;;1.63;1.30;;;18.40;53.40;;;;;;5052483;28;20711;-64
2022/02/03 08:25:14;;;;;;;1.88;1.55;;;18.40;53.30;;;;;;5051408;28;20661;-62
2022/02/03 08:28:00;;;;;;;4.25;1.63;;;18.50;53.40;;;;;;5052653;28;20182;-68
2022/02/03 08:32:59;;;;;;;4.25;1.70;;;18.40;53.50;;;;;;5052254;28;20217;-67
2022/02/03 08:35:37;;;;;;;4.45;1.58;;;18.50;54.00;;;;;;5052387;28;20221;-67
2022/02/03 08:40:57;;;;;;;4.03;1.90;;;18.50;54.00;;;;;;5052452;28;20228;-66
2022/02/03 08:43:24;;;;;;;3.92;1.70;;;18.40;53.90;;;;;;5054509;28;20172;-66
2022/02/03 08:45:49;;;;;;;2.67;1.77;;;18.50;54.10;;;;;;5055554;28;20551;-67
2022/02/03 08:48:15;;;;;;;2.00;1.40;;;18.40;54.10;;;;;;5056114;28;20178;-70
2022/02/03 08:50:41;;;;;;;2.65;1.60;;;18.40;54.10;;;;;;5056282;28;20203;-65
2022/02/03 08:53:16;;;;;;;3.63;1.80;;;18.40;54.20;;;;;;5055144;28;20660;-65
2022/02/03 08:59:01;;;;;;;2.42;1.58;;;18.30;54.10;;;;;;5055465;28;20182;-65
2022/02/03 09:29:33;;;;;;;3.30;1.73;;;18.40;53.40;;;;;;5074731;28;20181;-64
2022/02/03 09:40:13;;;;;;;2.45;1.83;;;18.40;53.30;;;;;;5055290;28;20293;-66
2022/02/03 09:56:14;;;;;;;3.55;1.33;;;18.20;54.30;;;;;;5073481;28;20653;-66
2022/02/03 09:58:53;;;;;;;4.32;1.58;;;18.20;53.70;;;;;;5075212;28;20170;-66
2022/02/03 10:01:27;;;;;;;1.65;1.50;;;18.20;53.60;;;;;;5075080;28;20259;-66
2022/02/03 10:04:03;;;;;;;2.72;1.60;;;18.30;53.60;;;;;;5041214;28;20633;-66
2022/02/03 10:06:29;;;;;;;1.58;1.30;;;18.30;54.20;;;;;;5057877;28;20204;-67
2022/02/03 10:08:55;;;;;;;2.13;1.45;;;18.30;53.40;;;;;;5039218;28;20629;-66
2022/02/03 10:11:23;;;;;;;2.22;1.58;;;18.30;53.40;;;;;;5074528;28;20640;-66
2022/02/03 10:14:01;;;;;;;1.65;1.33;;;18.30;53.50;;;;;;5074436;28;20178;-66
2022/02/03 10:16:29;;;;;;;1.55;1.30;;;18.20;53.40;;;;;;5073981;28;20198;-65
2022/02/03 10:19:19;;;;;;;1.65;1.10;;;18.10;53.50;;;;;;5074034;28;20537;-65
2022/02/03 10:21:48;;;;;;;2.33;2.10;;;18.10;53.60;;;;;;5074403;28;20595;-65
2022/02/03 10:24:16;;;;;;;2.60;1.33;;;18.10;53.80;;;;;;5053419;28;20186;-65
2022/02/03 10:26:45;;;;;;;1.60;1.50;;;18.10;53.80;;;;;;5054459;28;20596;-65
2022/02/03 10:29:13;;;;;;;2.10;1.50;;;18.10;53.70;;;;;;5054010;28;20648;-66
2022/02/03 10:31:40;;;;;;;2.47;1.30;;;18.10;53.70;;;;;;5053704;28;20190;-67
2022/02/03 10:34:09;;;;;;;3.72;1.50;;;18.10;53.70;;;;;;5053952;28;20226;-67
2022/02/03 10:42:51;;;;;;;2.38;1.30;;;18.20;53.50;;;;;;5054018;28;20301;-66
2022/02/03 10:45:36;;;;;;;1.27;1.17;;;18.10;53.50;;;;;;5052592;28;20580;-66
2022/02/03 10:48:18;;;;;;;1.65;1.50;;;18.10;53.60;;;;;;5053894;28;20175;-66
2022/02/03 10:51:07;;;;;;;1.95;1.40;;;18.00;53.70;;;;;;5053251;28;20641;-66
2022/02/03 10:53:48;;;;;;;1.73;1.30;;;18.00;53.80;;;;;;5053753;28;20254;-66
2022/02/03 11:01:22;;;;;;;1.42;1.33;;;18.10;53.80;;;;;;5053407;28;20706;-66
2022/02/03 11:06:52;;;;;;;1.98;1.55;;;18.10;53.60;;;;;;5053142;28;20178;-67
2022/02/03 11:09:23;;;;;;;1.38;1.13;;;18.10;53.60;;;;;;5053360;28;20181;-66
2022/02/03 11:11:56;;;;;;;2.50;1.52;;;18.10;53.60;;;;;;5052721;28;20182;-65
2022/02/03 11:14:22;;;;;;;1.65;1.52;;;18.10;53.70;;;;;;5036823;28;20252;-66
2022/02/03 11:16:51;;;;;;;1.48;1.30;;;18.10;53.70;;;;;;5053654;28;20504;-66
2022/02/03 11:19:19;;;;;;;1.80;1.38;;;18.10;53.60;;;;;;5034947;28;20183;-66
2022/02/03 11:21:49;;;;;;;2.83;1.75;;;18.00;53.60;;;;;;5053366;28;20187;-66
2022/02/03 11:24:30;;;;;;;2.58;1.27;;;18.00;53.60;;;;;;5035878;28;20191;-64
2022/02/03 11:38:33;;;;;;;1.52;1.40;;;18.00;53.60;;;;;;5053307;28;20204;-73
2022/02/03 11:43:25;;;;;;;4.03;1.80;;;17.90;53.80;;;;;;5053071;28;20217;-63
2022/02/03 11:46:31;;;;;;;7.60;1.77;;;17.90;54.00;;;;;;5052819;28;20175;-63
2022/02/03 11:49:09;;;;;;;2.85;1.75;;;17.80;54.00;;;;;;5051977;28;20171;-66
2022/02/03 11:51:58;;;;;;;3.85;1.60;;;17.90;54.10;;;;;;5054118;28;20186;-67
2022/02/03 11:54:51;;;;;;;5.63;1.95;;;17.90;54.10;;;;;;5051839;28;20215;-68
2022/02/03 12:02:41;;;;;;;1.90;1.30;;;18.00;54.00;;;;;;5051630;28;20579;-68
2022/02/03 12:08:19;;;;;;;3.50;1.85;;;18.00;54.00;;;;;;5052664;28;20201;-65
2022/02/03 12:14:07;;;;;;;1.95;1.70;;;17.90;54.10;;;;;;5052432;28;20190;-66
2022/02/03 12:18:56;;;;;;;4.63;2.13;;;17.90;54.20;;;;;;5051887;28;20186;-66
2022/02/03 12:21:33;;;;;;;4.00;2.20;;;17.90;54.20;;;;;;5052767;28;20175;-65
2022/02/03 12:24:16;;;;;;;1.90;1.73;;;17.90;54.20;;;;;;5069852;28;20655;-64
2022/02/03 12:26:51;;;;;;;3.28;1.77;;;17.90;54.20;;;;;;5072115;28;20181;-64
2022/02/03 12:29:24;;;;;;;2.60;1.98;;;17.90;54.10;;;;;;5071637;28;20205;-64
2022/02/03 12:40:02;;;;;;;1.92;1.67;;;17.80;54.20;;;;;;5072490;28;20206;-65
2022/02/03 12:42:45;;;;;;;3.65;2.08;;;17.80;54.20;;;;;;5072587;28;20185;-65
2022/02/03 12:45:23;;;;;;;1.95;1.67;;;17.70;54.20;;;;;;5071388;28;20174;-64
2022/02/03 12:47:50;;;;;;;3.47;1.95;;;17.70;54.20;;;;;;5072247;28;20178;-64
2022/02/03 12:50:21;;;;;;;4.07;1.80;;;17.80;54.20;;;;;;5071074;28;20696;-64
2022/02/03 12:52:47;;;;;;;3.20;2.17;;;17.80;54.20;;;;;;5072239;28;20230;-64
2022/02/03 12:55:26;;;;;;;2.17;1.75;;;17.80;54.10;;;;;;5071785;28;20217;-65
2022/02/03 12:57:52;;;;;;;2.20;1.73;;;17.80;54.10;;;;;;5071389;28;20224;-65
2022/02/03 13:00:26;;;;;;;3.08;1.67;;;17.80;54.40;;;;;;5072128;28;20175;-64
2022/02/03 13:02:56;;;;;;;3.10;2.00;;;17.70;54.10;;;;;;5072264;28;20227;-64
2022/02/03 13:05:27;;;;;;;2.83;2.05;;;17.70;54.10;;;;;;5072005;28;20542;-64
2022/02/03 13:07:54;;;;;;;2.38;1.60;;;17.70;54.20;;;;;;5071824;28;20332;-64
2022/02/03 13:10:21;;;;;;;2.00;1.75;;;17.70;54.20;;;;;;5072146;28;20202;-64
2022/02/03 13:12:59;;;;;;;4.18;2.00;;;17.70;54.30;;;;;;5071197;28;20250;-64
2022/02/03 13:15:38;;;;;;;4.40;2.08;;;17.70;54.20;;;;;;5072168;28;20303;-64
2022/02/03 13:18:13;;;;;;;2.58;1.92;;;17.80;54.20;;;;;;5071653;28;20174;-64
2022/02/03 13:20:45;;;;;;;2.63;1.75;;;17.80;54.20;;;;;;5071310;28;20188;-63
2022/02/03 13:23:15;;;;;;;5.18;1.98;;;17.80;54.10;;;;;;5059824;28;20189;-63
2022/02/03 13:26:19;;;;;;;2.10;1.88;;;17.70;54.10;;;;;;5051364;28;20321;-64
2022/02/03 13:28:46;;;;;;;1.92;1.65;;;17.70;54.10;;;;;;5022114;28;20195;-64
2022/02/03 13:31:32;;;;;;;1.92;1.83;;;17.70;54.20;;;;;;5054734;28;20194;-65
2022/02/03 13:34:15;;;;;;;2.35;1.77;;;17.70;54.20;;;;;;5061992;28;20173;-65
2022/02/03 13:36:49;;;;;;;3.13;1.95;;;17.60;54.20;;;;;;5075311;28;20645;-65
2022/02/03 13:39:36;;;;;;;1.98;1.73;;;17.70;54.30;;;;;;5075016;28;20195;-65
2022/02/03 13:42:03;;;;;;;1.95;1.70;;;17.70;54.20;;;;;;5075121;28;20186;-65
2022/02/03 13:44:29;;;;;;;2.45;1.92;;;17.70;54.20;;;;;;5075292;28;20236;-64
2022/02/03 13:46:55;;;;;;;2.85;2.00;;;17.70;54.20;;;;;;5073400;28;20175;-64
2022/02/03 13:49:22;;;;;;;2.70;1.70;;;17.60;54.10;;;;;;5075028;28;20189;-64
2022/02/03 13:52:09;;;;;;;1.48;1.38;;;17.70;54.20;;;;;;5075099;28;20181;-64
2022/02/03 13:54:55;;;;;;;3.05;1.70;;;17.60;54.10;;;;;;5074167;28;20354;-65
2022/02/03 14:14:52;;;;;;;2.50;1.60;;;17.60;54.20;;;;;;5074587;28;20204;-64
2022/02/03 14:22:41;;;;;;;2.08;1.83;;;17.60;54.20;;;;;;5053750;28;20309;-64
2022/02/03 14:27:51;;;;;;;2.80;1.58;;;17.60;54.60;;;;;;5054303;28;20241;-65
2022/02/03 14:30:18;;;;;;;4.03;2.05;;;17.70;54.60;;;;;;5053507;28;20175;-68
2022/02/03 14:32:45;;;;;;;6.28;2.20;;;17.70;54.60;;;;;;5054467;28;20199;-67
2022/02/03 14:35:11;;;;;;;6.13;1.88;;;17.80;54.60;;;;;;5054037;28;20227;-66
2022/02/03 14:38:00;;;;;;;3.92;1.60;;;17.80;54.60;;;;;;5053514;28;20186;-66
2022/02/03 14:40:35;;;;;;;3.65;2.00;;;17.90;54.60;;;;;;5053503;28;20637;-66
2022/02/03 14:43:03;;;;;;;6.97;1.70;;;17.90;54.60;;;;;;5053228;28;20178;-66
2022/02/03 14:45:29;;;;;;;1.90;1.70;;;18.00;54.60;;;;;;5054013;28;20231;-66
2022/02/03 14:47:54;;;;;;;4.10;1.65;;;18.10;54.50;;;;;;5053617;28;20254;-66
2022/02/03 14:50:21;;;;;;;1.50;1.40;;;18.10;54.30;;;;;;5053195;28;20265;-66
2022/02/03 14:52:58;;;;;;;2.55;1.48;;;18.20;54.20;;;;;;5060770;28;20222;-66
2022/02/03 14:58:29;;;;;;;2.13;1.25;;;18.50;54.00;;;;;;5072773;28;20194;-65
2022/02/03 15:00:56;;;;;;;2.38;1.63;;;18.60;53.70;;;;;;5083720;28;20238;-64
2022/02/03 15:03:24;;;;;;;4.32;1.73;;;18.60;53.50;;;;;;5093734;28;20174;-65
2022/02/03 15:05:49;;;;;;;1.73;1.48;;;18.70;53.40;;;;;;5093472;28;20239;-65
2022/02/03 15:08:18;;;;;;;1.73;1.25;;;18.70;53.40;;;;;;5093675;28;20174;-64
2022/02/03 15:10:50;;;;;;;2.15;1.23;;;18.80;53.40;;;;;;5093865;28;20178;-63
2022/02/03 15:13:36;;;;;;;1.88;1.40;;;18.80;53.30;;;;;;5091920;28;20173;-64
2022/02/03 15:16:02;;;;;;;2.88;1.67;;;18.80;53.20;;;;;;5093364;28;20212;-64
2022/02/03 15:18:28;;;;;;;2.55;1.27;;;18.90;53.20;;;;;;5093042;28;20173;-64
2022/02/03 15:20:53;;;;;;;1.63;1.50;;;18.90;53.10;;;;;;5093385;28;20671;-64
2022/02/03 15:23:19;;;;;;;3.30;1.73;;;18.90;53.00;;;;;;5080393;28;20625;-63
2022/02/03 15:25:44;;;;;;;3.67;1.70;;;19.00;53.00;;;;;;5072471;28;20178;-64
2022/02/03 15:28:10;;;;;;;3.97;1.75;;;18.90;53.00;;;;;;5072826;28;20170;-64
2022/02/03 15:30:35;;;;;;;2.50;1.70;;;18.90;53.00;;;;;;5073086;28;20170;-64
2022/02/03 15:33:01;;;;;;;3.08;1.40;;;19.00;53.00;;;;;;5072013;28;20171;-65
2022/02/03 15:37:53;;;;;;;3.95;1.33;;;19.00;52.90;;;;;;5073126;28;20210;-65
2022/02/03 15:40:22;;;;;;;2.38;1.60;;;18.90;52.90;;;;;;5072469;28;20179;-65
2022/02/03 15:43:00;;;;;;;1.70;1.33;;;18.90;52.90;;;;;;5072898;28;20246;-65
2022/02/03 15:45:26;;;;;;;2.53;1.45;;;18.90;52.90;;;;;;5073043;28;20265;-65
2022/02/03 15:48:00;;;;;;;3.00;1.38;;;18.90;52.90;;;;;;5072308;28;20181;-65
2022/02/03 16:04:04;;;;;;;3.38;1.40;;;18.60;53.40;;;;;;5052836;28;20365;-65
2022/02/03 16:17:09;;;;;;;1.67;1.55;;;18.70;53.40;;;;;;5052316;28;20179;-67
2022/02/03 16:19:57;;;;;;;1.50;1.40;;;18.70;53.30;;;;;;5052524;28;20511;-65
2022/02/03 16:23:04;;;;;;;2.13;1.38;;;18.70;53.40;;;;;;5056613;28;20257;-65
2022/02/03 16:53:05;;;;;;;1.92;1.80;;;18.60;53.70;;;;;;5058821;28;20221;-63
2022/02/03 16:55:35;;;;;;;3.30;1.65;;;18.60;53.70;;;;;;5092218;28;20209;-63
2022/02/03 16:58:02;;;;;;;2.35;1.75;;;18.60;53.60;;;;;;5091603;28;20173;-61
2022/02/03 17:00:28;;;;;;;2.22;1.50;;;18.70;53.50;;;;;;5092344;28;20697;-62
2022/02/03 17:02:54;;;;;;;2.63;1.52;;;18.60;53.40;;;;;;5091991;28;20182;-59
2022/02/03 17:05:19;;;;;;;4.82;1.55;;;18.60;53.70;;;;;;5095488;28;20178;-59
2022/02/03 17:07:45;;;;;;;4.65;1.70;;;18.60;54.40;;;;;;5096372;28;20663;-60
2022/02/03 17:10:10;;;;;;;2.05;1.67;;;18.50;53.80;;;;;;5095932;28;20178;-60
2022/02/03 17:12:36;;;;;;;1.50;1.40;;;18.50;53.90;;;;;;5095584;28;20239;-61
2022/02/03 17:15:02;;;;;;;2.35;1.58;;;18.50;54.00;;;;;;5095773;28;20232;-60
2022/02/03 17:17:27;;;;;;;1.60;1.50;;;18.50;54.20;;;;;;5095363;28;20177;-60
2022/02/03 17:19:53;;;;;;;2.78;1.67;;;18.50;54.20;;;;;;5095586;28;20652;-60
2022/02/03 17:22:24;;;;;;;1.75;1.50;;;18.60;54.20;;;;;;5091465;28;20593;-61
2022/02/03 17:25:03;;;;;;;3.13;1.45;;;18.60;54.20;;;;;;5074831;28;20997;-61
2022/02/03 17:27:37;;;;;;;3.63;1.65;;;18.60;54.10;;;;;;5075519;28;20174;-60
2022/02/03 18:06:15;;;;;;;2.90;1.88;;;18.40;54.00;;;;;;5095349;28;20228;-60
2022/02/03 18:10:13;;;;;;;3.80;1.70;;;18.30;54.10;;;;;;5094930;28;20264;-61
2022/02/03 18:31:13;;;;;;;1.40;1.30;;;18.30;54.10;;;;;;5074305;28;20228;-59
2022/02/03 18:36:52;;;;;;;2.40;1.55;;;18.30;54.20;;;;;;5073930;28;20197;-61
2022/02/03 18:48:32;;;;;;;2.28;1.77;;;18.40;54.20;;;;;;5074487;28;20174;-59
2022/02/03 18:53:07;;;;;;;1.67;1.58;;;18.40;54.20;;;;;;5067922;28;20226;-60
2022/02/03 18:55:42;;;;;;;3.58;1.83;;;18.40;54.30;;;;;;5053991;28;20280;-61
2022/02/03 18:58:29;;;;;;;2.08;1.70;;;18.40;54.40;;;;;;5053020;28;20202;-60
2022/02/03 19:59:45;;;;;;;6.10;1.92;;;19.40;53.00;;;;;;5073002;28;20196;-58
2022/02/03 20:01:38;;;;;;;2.35;2.15;;;19.40;53.00;;;;;;5071851;28;20163;-58
2022/02/03 20:04:14;;;;;;;2.95;2.33;;;19.30;53.00;;;;;;5072475;28;20182;-58
2022/02/03 20:07:00;;;;;;;2.00;1.90;;;19.20;53.10;;;;;;5072404;28;20171;-59
2022/02/03 20:12:03;;;;;;;2.33;2.13;;;19.10;53.30;;;;;;5072918;28;20779;-59
2022/02/03 20:14:28;;;;;;;2.50;2.30;;;19.10;53.40;;;;;;5072270;28;20289;-59
2022/02/03 20:16:54;;;;;;;2.47;1.90;;;19.10;53.40;;;;;;5072568;28;20222;-59
2022/02/03 20:19:19;;;;;;;2.83;2.30;;;19.10;53.40;;;;;;5072713;28;20170;-60
2022/02/03 20:21:46;;;;;;;2.95;2.20;;;19.10;53.40;;;;;;5072011;28;20213;-59
2022/02/03 20:24:11;;;;;;;2.30;2.03;;;19.20;53.40;;;;;;5052287;28;20182;-59
2022/02/03 20:26:37;;;;;;;3.05;2.40;;;19.20;53.40;;;;;;5052847;28;20175;-59
2022/02/03 20:29:03;;;;;;;2.67;2.40;;;19.20;53.40;;;;;;5051860;28;20182;-58
2022/02/03 20:31:31;;;;;;;3.17;2.25;;;19.20;53.30;;;;;;5052611;28;20179;-58
2022/02/03 20:33:57;;;;;;;2.53;2.33;;;19.20;53.30;;;;;;5052534;28;20195;-61
2022/02/03 20:36:23;;;;;;;2.58;2.38;;;19.20;53.30;;;;;;5051677;28;20214;-61
2022/02/03 20:38:51;;;;;;;2.63;2.42;;;19.20;53.20;;;;;;5036083;28;20182;-64
2022/02/03 20:41:17;;;;;;;2.50;1.90;;;19.30;53.40;;;;;;5056542;28;20179;-62
2022/02/03 20:43:42;;;;;;;2.50;2.30;;;19.30;53.40;;;;;;5055917;28;20181;-62
2022/02/03 20:46:08;;;;;;;2.33;2.13;;;19.20;53.50;;;;;;5056560;28;20179;-61
2022/02/03 20:48:33;;;;;;;2.65;2.45;;;19.20;53.60;;;;;;5056022;28;20182;-62
2022/02/03 20:50:59;;;;;;;2.35;2.15;;;19.10;53.60;;;;;;5056052;28;20623;-62
2022/02/03 20:53:25;;;;;;;2.35;2.17;;;19.10;53.80;;;;;;5056209;28;20231;-61
2022/02/03 20:55:50;;;;;;;2.65;2.30;;;19.10;53.80;;;;;;5055668;28;20600;-61
2022/02/03 20:58:19;;;;;;;3.95;2.42;;;19.10;53.90;;;;;;5056248;28;20630;-60
2022/02/03 21:00:58;;;;;;;3.10;2.20;;;19.10;54.00;;;;;;5056386;28;20183;-61
2022/02/03 21:03:29;;;;;;;2.20;2.03;;;19.10;54.00;;;;;;5039676;28;20182;-60
2022/02/03 21:05:55;;;;;;;2.42;2.13;;;19.10;54.00;;;;;;5056004;28;20536;-60
2022/02/03 21:08:29;;;;;;;2.17;1.98;;;19.10;53.90;;;;;;5056301;28;20171;-60
2022/02/03 21:10:54;;;;;;;2.53;2.33;;;19.20;53.90;;;;;;5055196;28;20183;-63
2022/02/03 21:13:20;;;;;;;2.65;2.40;;;19.20;53.90;;;;;;5056044;28;20185;-63
2022/02/03 21:15:45;;;;;;;2.80;2.50;;;19.20;53.90;;;;;;5056055;28;20202;-63
2022/02/03 21:18:12;;;;;;;2.28;2.08;;;19.10;53.90;;;;;;5054857;28;20232;-61
2022/02/03 21:20:39;;;;;;;2.70;2.50;;;19.10;53.90;;;;;;5055747;28;20511;-62
2022/02/03 21:23:04;;;;;;;2.63;2.42;;;19.10;54.00;;;;;;5066549;28;20198;-60
2022/02/03 21:25:40;;;;;;;3.60;2.50;;;19.10;54.00;;;;;;5075155;28;20202;-62
2022/02/03 21:28:11;;;;;;;2.42;2.20;;;19.00;54.10;;;;;;5075556;28;20170;-60
2022/02/03 21:30:37;;;;;;;2.92;2.72;;;19.00;54.20;;;;;;5075574;28;20228;-62
2022/02/03 21:33:03;;;;;;;2.50;2.30;;;19.00;54.30;;;;;;5075027;28;20183;-60
2022/02/03 21:35:29;;;;;;;2.58;2.38;;;19.10;54.10;;;;;;5075727;28;20260;-61
2022/02/03 21:37:55;;;;;;;3.40;2.70;;;19.10;54.20;;;;;;5074880;28;20170;-61
2022/02/03 21:40:21;;;;;;;2.35;2.25;;;19.10;54.10;;;;;;5075763;28;20186;-61
2022/02/03 21:42:47;;;;;;;2.60;2.50;;;19.10;54.00;;;;;;5075461;28;20200;-61
2022/02/03 21:45:14;;;;;;;2.47;2.28;;;19.10;54.00;;;;;;5074288;28;20178;-62
2022/02/03 21:47:40;;;;;;;2.50;2.30;;;19.10;54.10;;;;;;5075374;28;20170;-61
2022/02/03 21:50:06;;;;;;;2.58;2.38;;;19.10;54.10;;;;;;5073988;28;20509;-62
2022/02/03 21:52:44;;;;;;;2.50;2.30;;;19.10;54.20;;;;;;5074398;28;20229;-61
2022/02/03 21:55:09;;;;;;;3.03;2.72;;;19.00;54.20;;;;;;5075143;28;20234;-62
2022/02/03 21:57:39;;;;;;;3.45;2.53;;;19.00;54.20;;;;;;5057577;28;20671;-61
2022/02/03 22:00:06;;;;;;;2.67;2.47;;;18.90;54.30;;;;;;5062993;28;20244;-61
2022/02/03 22:02:32;;;;;;;3.97;2.10;;;18.80;54.40;;;;;;5066341;28;20239;-60
2022/02/03 22:04:58;;;;;;;3.38;3.00;;;18.70;54.40;;;;;;5074850;28;20210;-60
2022/02/03 22:07:23;;;;;;;2.95;2.75;;;18.70;54.50;;;;;;5074237;28;20663;-61
2022/02/03 22:09:49;;;;;;;3.47;3.13;;;18.60;54.60;;;;;;5074927;28;20201;-62
2022/02/03 22:12:14;;;;;;;3.22;2.92;;;18.60;54.60;;;;;;5074566;28;20667;-62
2022/02/03 22:14:40;;;;;;;3.33;2.80;;;18.50;54.70;;;;;;5073848;28;20669;-62
2022/02/03 22:17:06;;;;;;;3.63;3.33;;;18.50;54.80;;;;;;5074722;28;20629;-62
2022/02/03 22:19:32;;;;;;;3.67;2.72;;;18.50;54.80;;;;;;5075001;28;20193;-61
2022/02/03 22:25:15;;;;;;;3.42;3.10;;;18.40;54.90;;;;;;5039712;28;20182;-61
2022/02/03 22:38:43;;;;;;;3.55;3.30;;;18.30;55.00;;;;;;5054615;28;20655;-60
2022/02/03 22:46:37;;;;;;;3.40;3.20;;;18.20;55.00;;;;;;5054525;28;20545;-61